Terminal Aerodrome Forecast
Issued by NWS

Current Version | Previous Version | Graphics & Text | Print | Product List | Glossary On
Versions: 1 2 3 4 5 6 7 8 9 10 11 12 13 14 15 16 17 18
000
FTUS41 KPBZ 181000 AAB
TAFMGW
TAF AMD
KMGW 181022Z 1810/1906 36003KT 2SM BR SCT002
      TEMPO 1812/1813 1/4SM FG VV001
     FM181400 01005KT P6SM SCT050=

USA.gov is the U.S. government's official web portal to all federal, state and local government web resources and services.